Time;durP1;ratioP1;P1;durP2;ratioP2;P2;SDS_P1;SDS_P2;PMS_P1;PMS_P2;Temp;Humidity;BMP_temperature;BMP_pressure;BME280_temperature;BME280_humidity;BME280_pressure;Samples;Min_cycle;Max_cycle;Signal;HPM_P1;HPM_P2
2022/11/13 00:00:09;;;;;;;44.80;31.70;;;;;;;17.42;44.73;102597.75;101912;1331;72666;-82
2022/11/13 00:02:35;;;;;;;42.50;31.10;;;;;;;17.42;44.80;102597.21;101935;1330;61315;-82
2022/11/13 00:05:00;;;;;;;42.00;31.60;;;;;;;17.42;44.71;102595.62;101899;1332;61443;-82
2022/11/13 00:07:26;;;;;;;47.00;32.50;;;;;;;17.41;44.70;102596.52;101921;1329;61443;-82
2022/11/13 00:09:53;;;;;;;41.90;31.10;;;;;;;17.41;44.68;102593.33;101910;1323;61281;-82
2022/11/13 00:12:18;;;;;;;43.60;30.50;;;;;;;17.41;44.63;102591.90;101937;1328;61301;-82
2022/11/13 00:14:44;;;;;;;45.10;32.20;;;;;;;17.41;44.76;102591.56;101983;1322;62205;-81
2022/11/13 00:17:09;;;;;;;45.90;31.80;;;;;;;17.40;44.65;102588.38;101947;1333;61506;-82
2022/11/13 00:19:35;;;;;;;37.90;29.50;;;;;;;17.40;44.65;102590.69;101924;1328;61426;-82
2022/11/13 00:22:00;;;;;;;44.50;32.50;;;;;;;17.40;44.65;102590.16;101939;1326;61331;-82
2022/11/13 00:24:26;;;;;;;48.30;32.30;;;;;;;17.39;44.69;102585.73;101859;1332;61482;-81
2022/11/13 00:26:52;;;;;;;47.20;32.60;;;;;;;17.39;44.72;102584.48;101859;1335;61335;-82
2022/11/13 00:29:17;;;;;;;43.90;32.40;;;;;;;17.38;44.75;102586.46;101960;1329;61319;-82
2022/11/13 00:31:43;;;;;;;46.30;33.20;;;;;;;17.38;44.67;102582.55;101912;1328;61393;-82
2022/11/13 00:34:09;;;;;;;44.40;32.40;;;;;;;17.37;44.61;102580.45;101918;1328;61433;-83
2022/11/13 00:36:35;;;;;;;49.30;34.00;;;;;;;17.37;44.61;102582.59;101863;1331;61399;-82
2022/11/13 00:39:00;;;;;;;46.80;33.90;;;;;;;17.37;44.60;102576.89;101905;1331;61428;-82
2022/11/13 00:41:26;;;;;;;45.60;32.60;;;;;;;17.37;44.53;102579.73;101913;1334;61351;-83
2022/11/13 00:43:51;;;;;;;41.50;31.20;;;;;;;17.36;44.54;102578.86;102055;1329;61316;-82
2022/11/13 00:46:17;;;;;;;45.30;32.90;;;;;;;17.37;44.54;102576.55;101905;1334;61323;-82
2022/11/13 00:49:09;;;;;;;43.00;33.60;;;;;;;17.36;44.56;102576.56;101992;1334;61342;-81
2022/11/13 00:51:34;;;;;;;47.50;34.10;;;;;;;17.36;44.49;102579.95;101744;1339;60130;-81
2022/11/13 00:54:00;;;;;;;48.40;31.90;;;;;;;17.36;44.55;102579.60;101717;1336;61333;-81
2022/11/13 00:56:26;;;;;;;43.80;31.60;;;;;;;17.35;44.51;102580.84;101719;1334;61395;-82
2022/11/13 00:58:51;;;;;;;44.90;33.00;;;;;;;17.35;44.45;102581.39;101728;1336;59430;-82
2022/11/13 01:01:17;;;;;;;46.40;33.70;;;;;;;17.35;44.61;102579.23;101705;1338;61359;-81
2022/11/13 01:03:43;;;;;;;46.70;33.00;;;;;;;17.35;44.57;102577.11;101751;1335;61351;-82
2022/11/13 01:06:20;;;;;;;44.00;31.70;;;;;;;17.35;44.52;102574.48;101719;1337;61469;-82
2022/11/13 01:08:45;;;;;;;45.20;33.10;;;;;;;17.35;44.53;102580.16;101695;1335;72480;-81
2022/11/13 01:11:13;;;;;;;44.90;32.10;;;;;;;17.34;44.62;102571.80;101725;1335;61324;-81
2022/11/13 01:13:41;;;;;;;42.70;32.10;;;;;;;17.34;44.44;102573.59;101778;1333;61511;-81
2022/11/13 01:16:08;;;;;;;43.30;32.80;;;;;;;17.34;44.51;102572.71;101712;1337;61323;-81
2022/11/13 01:18:34;;;;;;;43.00;33.10;;;;;;;17.33;44.49;102572.71;101751;1332;61202;-82
2022/11/13 01:21:15;;;;;;;44.70;32.50;;;;;;;17.33;44.44;102569.70;101776;1332;61397;-82
2022/11/13 01:23:41;;;;;;;42.20;32.50;;;;;;;17.33;44.46;102570.40;101724;1335;61358;-82
2022/11/13 01:26:08;;;;;;;44.10;33.70;;;;;;;17.33;44.56;102572.20;101713;1336;61465;-82
2022/11/13 01:28:34;;;;;;;44.10;32.00;;;;;;;17.33;44.51;102571.14;101808;1328;61280;-82
2022/11/13 01:30:59;;;;;;;45.90;33.30;;;;;;;17.32;44.53;102571.34;101843;1329;61326;-81
2022/11/13 01:33:25;;;;;;;46.10;33.80;;;;;;;17.32;44.38;102572.02;101859;1332;61331;-82
2022/11/13 01:35:50;;;;;;;51.00;33.70;;;;;;;17.32;44.44;102572.23;101862;1327;61901;-81
2022/11/13 01:38:16;;;;;;;42.20;32.50;;;;;;;17.32;44.41;102570.61;101984;1329;61460;-81
2022/11/13 01:40:47;;;;;;;44.10;32.20;;;;;;;17.32;44.28;102572.58;101911;1329;61487;-82
2022/11/13 01:43:25;;;;;;;46.60;33.40;;;;;;;17.32;44.46;102571.89;101958;1335;75639;-81
2022/11/13 01:45:57;;;;;;;43.50;32.70;;;;;;;17.32;44.38;102576.67;101907;1329;61329;-82
2022/11/13 01:48:22;;;;;;;42.60;32.70;;;;;;;17.31;44.36;102577.06;101951;1328;61257;-82
2022/11/13 01:50:48;;;;;;;48.60;33.30;;;;;;;17.30;44.36;102579.92;101858;1336;61752;-81
2022/11/13 01:53:13;;;;;;;45.70;33.10;;;;;;;17.30;44.41;102577.61;101991;1328;61319;-82
2022/11/13 01:55:39;;;;;;;44.60;33.20;;;;;;;17.30;44.29;102572.64;101941;1334;61420;-82
2022/11/13 01:58:05;;;;;;;44.30;32.20;;;;;;;17.30;44.28;102574.59;101905;1331;61341;-82
2022/11/13 02:00:30;;;;;;;45.80;32.40;;;;;;;17.29;44.39;102569.81;101916;1332;61529;-81
2022/11/13 02:02:56;;;;;;;47.00;34.00;;;;;;;17.28;44.22;102571.06;101952;1326;61315;-81
2022/11/13 02:05:21;;;;;;;43.50;31.90;;;;;;;17.29;44.33;102570.34;101927;1327;61478;-82
2022/11/13 02:07:47;;;;;;;45.60;31.70;;;;;;;17.29;44.36;102568.20;101953;1329;62056;-82
2022/11/13 02:10:12;;;;;;;45.30;33.40;;;;;;;17.29;44.29;102570.89;101927;1331;61342;-82
2022/11/13 02:12:42;;;;;;;46.20;31.20;;;;;;;17.28;44.21;102570.36;101985;1332;61331;-82
2022/11/13 02:15:08;;;;;;;43.40;32.70;;;;;;;17.28;44.25;102570.55;101858;1328;72552;-82
2022/11/13 02:17:37;;;;;;;44.00;32.30;;;;;;;17.28;44.14;102566.45;101868;1334;61292;-81
2022/11/13 02:20:03;;;;;;;43.40;32.80;;;;;;;17.28;44.27;102565.58;101953;1329;61229;-81
2022/11/13 02:23:11;;;;;;;44.40;32.80;;;;;;;17.27;44.25;102564.34;101914;1329;61309;-82
2022/11/13 02:25:36;;;;;;;42.90;30.80;;;;;;;17.25;44.23;102564.20;101796;1331;72617;-82
2022/11/13 02:28:02;;;;;;;45.40;31.80;;;;;;;17.25;44.21;102563.33;101699;1334;61350;-83
2022/11/13 02:30:30;;;;;;;45.10;32.40;;;;;;;17.24;44.24;102560.67;101705;1339;61382;-82
2022/11/13 02:32:56;;;;;;;45.80;33.10;;;;;;;17.25;44.13;102558.88;101715;1331;61357;-82
2022/11/13 02:35:29;;;;;;;40.60;30.70;;;;;;;17.24;44.18;102559.78;101614;1337;61387;-81
2022/11/13 02:37:56;;;;;;;42.70;31.70;;;;;;;17.24;44.16;102560.13;101639;1336;74631;-82
2022/11/13 02:40:22;;;;;;;45.40;32.80;;;;;;;17.24;44.15;102558.38;101623;1345;61451;-82
2022/11/13 02:42:48;;;;;;;44.00;32.40;;;;;;;17.25;44.20;102559.60;101622;1331;61426;-82
2022/11/13 02:45:13;;;;;;;43.70;33.90;;;;;;;17.24;44.06;102557.30;101768;1331;61297;-81
2022/11/13 02:47:39;;;;;;;46.90;32.70;;;;;;;17.24;44.10;102554.64;101749;1334;61343;-82
2022/11/13 02:50:06;;;;;;;44.20;32.20;;;;;;;17.23;44.09;102555.37;101764;1334;61337;-82
2022/11/13 02:52:32;;;;;;;43.00;32.70;;;;;;;17.23;44.08;102557.86;101734;1338;61274;-82
2022/11/13 02:54:57;;;;;;;44.50;32.20;;;;;;;17.22;44.06;102558.60;101754;1334;61315;-82
2022/11/13 02:57:23;;;;;;;44.70;32.20;;;;;;;17.22;43.90;102555.05;101763;1332;61280;-81
2022/11/13 02:59:48;;;;;;;42.80;31.70;;;;;;;17.22;44.00;102557.35;101850;1335;61510;-82
2022/11/13 03:02:14;;;;;;;45.70;31.60;;;;;;;17.22;43.89;102560.37;101944;1329;61338;-82
2022/11/13 03:04:39;;;;;;;42.10;32.50;;;;;;;17.22;43.87;102555.41;101953;1329;61334;-83
2022/11/13 03:07:05;;;;;;;42.30;32.50;;;;;;;17.21;43.80;102552.22;101825;1331;61316;-82
2022/11/13 03:09:30;;;;;;;42.80;32.40;;;;;;;17.20;43.95;102547.98;101965;1328;61487;-82
2022/11/13 03:11:56;;;;;;;41.00;30.80;;;;;;;17.19;43.90;102549.60;101912;1328;61287;-81
2022/11/13 03:14:21;;;;;;;43.10;32.20;;;;;;;17.20;43.94;102548.16;101885;1328;61419;-82
2022/11/13 03:16:47;;;;;;;44.80;32.20;;;;;;;17.19;43.93;102549.77;101871;1330;61304;-82
2022/11/13 03:19:13;;;;;;;42.30;31.20;;;;;;;17.19;43.84;102543.19;101848;1331;61279;-82
2022/11/13 03:21:38;;;;;;;41.30;31.90;;;;;;;17.19;43.89;102543.02;101880;1328;61440;-81
2022/11/13 03:24:04;;;;;;;40.50;31.10;;;;;;;17.18;43.81;102540.56;101903;1338;61244;-81
2022/11/13 03:26:29;;;;;;;40.80;29.90;;;;;;;17.18;43.80;102542.52;101854;1329;61381;-81
2022/11/13 03:28:55;;;;;;;43.50;32.00;;;;;;;17.18;43.80;102540.92;101928;1329;61417;-81
2022/11/13 03:31:21;;;;;;;42.70;30.90;;;;;;;17.18;43.85;102536.65;101860;1331;61325;-81
2022/11/13 03:33:46;;;;;;;39.80;31.70;;;;;;;17.19;43.81;102539.66;101825;1331;61391;-81
2022/11/13 03:36:12;;;;;;;41.10;30.30;;;;;;;17.18;43.78;102534.67;101901;1332;61487;-80
2022/11/13 03:38:37;;;;;;;39.80;30.40;;;;;;;17.18;43.73;102539.49;101866;1331;61237;-82
2022/11/13 03:41:03;;;;;;;41.50;29.70;;;;;;;17.18;43.77;102537.39;101928;1328;61409;-82
2022/11/13 03:43:29;;;;;;;40.10;30.20;;;;;;;17.17;43.76;102531.70;101896;1334;61296;-82
2022/11/13 03:45:54;;;;;;;41.30;30.90;;;;;;;17.17;43.75;102531.89;101944;1323;61383;-82
2022/11/13 03:48:20;;;;;;;41.60;29.40;;;;;;;17.17;43.79;102530.99;101902;1326;61343;-82
2022/11/13 03:50:48;;;;;;;39.60;29.90;;;;;;;17.16;43.81;102528.70;102056;1328;61222;-82
2022/11/13 03:53:14;;;;;;;39.50;28.80;;;;;;;17.16;43.80;102525.31;101931;1333;62461;-82
2022/11/13 03:55:40;;;;;;;38.70;29.40;;;;;;;17.16;43.78;102525.15;101911;1329;61411;-81
2022/11/13 03:58:05;;;;;;;40.70;28.80;;;;;;;17.16;43.76;102523.55;101941;1329;61319;-82
2022/11/13 04:00:31;;;;;;;40.80;29.80;;;;;;;17.16;43.67;102521.76;101943;1330;61302;-81
2022/11/13 04:02:57;;;;;;;37.00;28.40;;;;;;;17.16;43.76;102519.98;101852;1334;61330;-82
2022/11/13 04:05:22;;;;;;;39.90;29.00;;;;;;;17.16;43.68;102518.93;101943;1331;61337;-81
2022/11/13 04:07:48;;;;;;;37.50;27.00;;;;;;;17.16;43.67;102518.75;101922;1332;72589;-82
2022/11/13 04:10:13;;;;;;;35.20;27.50;;;;;;;17.16;43.71;102515.70;101902;1316;61503;-82
2022/11/13 04:12:39;;;;;;;38.10;27.90;;;;;;;17.16;43.61;102515.52;101935;1326;61260;-82
2022/11/13 04:15:05;;;;;;;36.20;27.10;;;;;;;17.17;43.70;102516.23;101852;1326;61306;-82
2022/11/13 04:17:30;;;;;;;37.50;27.00;;;;;;;17.16;43.78;102512.86;101931;1329;61272;-82
2022/11/13 04:19:56;;;;;;;38.30;27.60;;;;;;;17.16;43.64;102513.39;101908;1321;61325;-82
2022/11/13 04:22:21;;;;;;;37.30;27.40;;;;;;;17.16;43.75;102512.34;101918;1334;61344;-81
2022/11/13 04:24:47;;;;;;;36.00;26.80;;;;;;;17.15;43.59;102510.73;101937;1328;61391;-82
2022/11/13 04:27:12;;;;;;;38.60;27.70;;;;;;;17.16;43.62;102512.70;101931;1326;60077;-81
2022/11/13 04:29:38;;;;;;;36.40;28.00;;;;;;;17.15;43.69;102513.95;101943;1328;61414;-82
2022/11/13 04:32:04;;;;;;;34.90;27.10;;;;;;;17.15;43.54;102515.39;101961;1329;61325;-81
2022/11/13 04:34:29;;;;;;;37.50;27.10;;;;;;;17.15;43.58;102512.17;101976;1328;74602;-81
2022/11/13 04:36:55;;;;;;;34.90;26.50;;;;;;;17.14;43.63;102517.19;101958;1328;61376;-81
2022/11/13 04:39:20;;;;;;;36.50;27.20;;;;;;;17.14;43.52;102515.05;101944;1328;61518;-81
2022/11/13 04:44:30;;;;;;;35.80;26.70;;;;;;;17.13;43.55;102510.10;101969;1327;74580;-81
2022/11/13 04:46:56;;;;;;;35.20;27.00;;;;;;;17.14;43.59;102511.33;101875;1332;61354;-82
2022/11/13 04:49:21;;;;;;;36.30;26.80;;;;;;;17.13;43.59;102510.27;102077;1326;61309;-82
2022/11/13 04:51:47;;;;;;;36.00;27.50;;;;;;;17.13;43.70;102510.10;101930;1332;61281;-82
2022/11/13 04:54:12;;;;;;;35.00;26.20;;;;;;;17.12;43.63;102511.02;101905;1330;61343;-81
2022/11/13 04:56:38;;;;;;;33.60;25.40;;;;;;;17.12;43.57;102518.49;101961;1327;74700;-81
2022/11/13 04:59:03;;;;;;;37.40;26.40;;;;;;;17.12;43.59;102518.48;101949;1330;61302;-81
2022/11/13 05:01:29;;;;;;;33.70;26.30;;;;;;;17.12;43.47;102519.02;101918;1334;61339;-82
2022/11/13 05:03:54;;;;;;;34.50;25.90;;;;;;;17.12;43.53;102518.13;101974;1332;61373;-82
2022/11/13 05:06:20;;;;;;;32.80;23.70;;;;;;;17.12;43.62;102518.48;101979;1324;61262;-82
2022/11/13 05:08:46;;;;;;;37.90;25.90;;;;;;;17.12;43.55;102516.91;101965;1329;73742;-82
2022/11/13 05:11:12;;;;;;;36.00;25.50;;;;;;;17.11;43.53;102516.91;101983;1328;62449;-82
2022/11/13 05:13:37;;;;;;;33.50;24.90;;;;;;;17.11;43.58;102515.48;102002;1326;61430;-81
2022/11/13 05:16:04;;;;;;;36.50;26.20;;;;;;;17.11;43.51;102517.81;101883;1331;61411;-81
2022/11/13 05:18:31;;;;;;;34.30;26.20;;;;;;;17.10;43.49;102514.27;101954;1329;61321;-81
2022/11/13 05:20:57;;;;;;;34.20;25.00;;;;;;;17.11;43.48;102514.61;101892;1327;61555;-81
2022/11/13 05:23:23;;;;;;;33.80;26.30;;;;;;;17.10;43.41;102517.64;101955;1327;59310;-81
2022/11/13 05:25:48;;;;;;;33.70;25.90;;;;;;;17.10;43.52;102515.34;101885;1326;61319;-82
2022/11/13 05:28:14;;;;;;;36.30;25.80;;;;;;;17.10;43.37;102515.52;101873;1331;61250;-81
2022/11/13 05:30:39;;;;;;;33.20;26.20;;;;;;;17.09;43.55;102516.60;101911;1336;61341;-81
2022/11/13 05:33:05;;;;;;;35.50;24.70;;;;;;;17.10;43.46;102520.15;101885;1328;61463;-81
2022/11/13 05:35:30;;;;;;;32.50;24.80;;;;;;;17.09;43.49;102520.52;101898;1335;61324;-82
2022/11/13 05:37:59;;;;;;;33.60;25.10;;;;;;;17.10;43.40;102524.06;101956;1332;61485;-81
2022/11/13 05:40:24;;;;;;;35.60;25.90;;;;;;;17.10;43.36;102530.98;101949;1326;61243;-82
2022/11/13 05:42:52;;;;;;;34.00;26.60;;;;;;;17.10;43.42;102534.91;101939;1328;61356;-82
2022/11/13 05:45:18;;;;;;;37.00;26.50;;;;;;;17.10;43.35;102538.46;101922;1329;61047;-82
2022/11/13 05:47:44;;;;;;;36.60;25.00;;;;;;;17.10;43.45;102540.95;101936;1335;61328;-81
2022/11/13 05:50:09;;;;;;;32.60;24.90;;;;;;;17.10;43.26;102547.00;101438;1335;724019;-81
2022/11/13 05:52:35;;;;;;;33.30;25.80;;;;;;;17.11;43.34;102545.56;101950;1326;61284;-81
2022/11/13 05:55:00;;;;;;;35.40;25.60;;;;;;;17.11;43.29;102548.77;101943;1331;61519;-81
2022/11/13 05:57:26;;;;;;;37.40;26.20;;;;;;;17.10;43.30;102550.92;101956;1329;61393;-82
2022/11/13 05:59:54;;;;;;;33.20;26.20;;;;;;;17.10;43.30;102554.13;101923;1328;61423;-81
2022/11/13 06:02:19;;;;;;;34.20;24.50;;;;;;;17.09;43.24;102552.20;101959;1328;74359;-82
2022/11/13 06:04:47;;;;;;;30.60;24.00;;;;;;;17.08;43.19;102554.70;101918;1328;61403;-82
2022/11/13 06:07:12;;;;;;;35.60;24.40;;;;;;;17.09;43.23;102553.62;102000;1335;61170;-82
2022/11/13 06:09:38;;;;;;;32.90;24.20;;;;;;;17.09;43.24;102552.55;101930;1330;61719;-82
2022/11/13 06:12:04;;;;;;;36.00;24.10;;;;;;;17.08;43.11;102553.11;101975;1329;61343;-82
2022/11/13 06:14:30;;;;;;;34.50;24.50;;;;;;;17.08;43.07;102553.82;101929;1329;61279;-82
2022/11/13 06:16:55;;;;;;;35.60;25.30;;;;;;;17.07;43.10;102551.89;101882;1331;61445;-82
2022/11/13 06:19:21;;;;;;;31.50;24.20;;;;;;;17.07;43.04;102549.95;101983;1329;61367;-81
2022/11/13 06:21:46;;;;;;;33.70;24.80;;;;;;;17.07;43.15;102552.79;101859;1331;61275;-81
2022/11/13 06:24:12;;;;;;;31.70;24.00;;;;;;;17.07;43.08;102544.95;101929;1329;61407;-82
2022/11/13 06:26:37;;;;;;;35.50;24.70;;;;;;;17.07;43.18;102545.67;101939;1334;59301;-82
2022/11/13 06:29:04;;;;;;;33.80;24.90;;;;;;;17.06;43.07;102545.14;101891;1334;61293;-82
2022/11/13 06:31:31;;;;;;;32.10;24.90;;;;;;;17.06;42.97;102542.11;101950;1331;61323;-82
2022/11/13 06:33:59;;;;;;;36.30;24.50;;;;;;;17.06;43.03;102538.03;101906;1329;61348;-82
2022/11/13 06:36:26;;;;;;;37.80;26.20;;;;;;;17.06;43.05;102536.45;101843;1331;61324;-81
2022/11/13 06:38:52;;;;;;;36.80;26.00;;;;;;;17.06;42.96;102533.23;101890;1331;61320;-81
2022/11/13 06:41:23;;;;;;;36.30;25.40;;;;;;;17.06;42.96;102533.41;101861;1332;61289;-81
2022/11/13 06:43:49;;;;;;;35.50;25.80;;;;;;;17.06;43.10;102537.67;101789;1328;74663;-81
2022/11/13 06:46:16;;;;;;;35.50;27.20;;;;;;;17.06;42.92;102538.93;101945;1334;61278;-81
2022/11/13 06:48:42;;;;;;;37.60;27.00;;;;;;;17.06;42.98;102538.39;101870;1331;61054;-82
2022/11/13 06:51:10;;;;;;;38.00;28.60;;;;;;;17.06;42.91;102540.88;101842;1336;61348;-81
2022/11/13 06:53:36;;;;;;;36.00;28.20;;;;;;;17.06;42.94;102546.74;101898;1334;74832;-81
2022/11/13 06:56:04;;;;;;;38.20;29.40;;;;;;;17.06;42.83;102552.27;101865;1332;61478;-81
2022/11/13 06:58:29;;;;;;;38.40;28.10;;;;;;;17.06;42.89;102548.16;101914;1314;61153;-81
2022/11/13 07:00:55;;;;;;;39.10;29.00;;;;;;;17.06;42.93;102545.34;101844;1325;61349;-81
2022/11/13 07:03:22;;;;;;;41.40;29.40;;;;;;;17.06;42.83;102549.05;101854;1329;62943;-81
2022/11/13 07:05:47;;;;;;;37.50;27.00;;;;;;;17.06;42.86;102548.34;101885;1328;61248;-81
2022/11/13 07:08:13;;;;;;;38.20;28.80;;;;;;;17.06;42.88;102553.33;101756;1331;61346;-81
2022/11/13 07:10:39;;;;;;;38.60;27.80;;;;;;;17.06;42.84;102551.36;101672;1328;61363;-81
2022/11/13 07:13:04;;;;;;;40.70;27.60;;;;;;;17.06;42.93;102552.98;101778;1332;61333;-81
2022/11/13 07:15:38;;;;;;;37.10;28.60;;;;;;;17.07;42.94;102549.75;101707;1326;74720;-81
2022/11/13 07:18:04;;;;;;;36.10;27.70;;;;;;;17.07;42.90;102550.47;101737;1338;61322;-81
2022/11/13 07:20:30;;;;;;;40.00;29.30;;;;;;;17.07;42.79;102548.86;102050;1331;61393;-81
2022/11/13 07:22:58;;;;;;;36.30;27.50;;;;;;;17.07;42.84;102550.63;101714;1335;61321;-81
2022/11/13 07:25:24;;;;;;;43.20;29.60;;;;;;;17.07;42.84;102544.76;101857;1331;74730;-82
2022/11/13 07:27:49;;;;;;;37.90;27.80;;;;;;;17.08;42.83;102547.59;101814;1331;61334;-82
2022/11/13 07:30:15;;;;;;;37.30;26.60;;;;;;;17.09;42.70;102551.48;101826;1328;61338;-82
2022/11/13 07:32:41;;;;;;;36.70;27.20;;;;;;;17.09;42.77;102551.83;101828;1331;61290;-82
2022/11/13 07:35:07;;;;;;;32.20;24.80;;;;;;;17.10;42.86;102551.45;101831;1328;61400;-81
2022/11/13 07:37:32;;;;;;;33.30;24.90;;;;;;;17.10;42.83;102548.07;101864;1331;61297;-81
2022/11/13 07:39:58;;;;;;;34.70;25.80;;;;;;;17.10;42.84;102547.90;101836;1321;61355;-82
2022/11/13 07:42:24;;;;;;;36.60;24.80;;;;;;;17.10;42.77;102549.86;101873;1330;61822;-82
2022/11/13 07:44:49;;;;;;;35.50;25.60;;;;;;;17.09;42.80;102550.40;101838;1331;61284;-82
2022/11/13 07:47:15;;;;;;;32.70;24.60;;;;;;;17.10;42.66;102543.45;101798;1325;61303;-82
2022/11/13 07:49:40;;;;;;;32.20;24.30;;;;;;;17.11;42.63;102543.44;101799;1335;61881;-82
2022/11/13 07:52:06;;;;;;;32.40;24.20;;;;;;;17.11;42.69;102539.52;101843;1331;61333;-82
2022/11/13 07:54:32;;;;;;;32.60;23.40;;;;;;;17.11;42.75;102539.52;101804;1331;61330;-82
2022/11/13 07:56:58;;;;;;;31.30;23.20;;;;;;;17.11;42.74;102535.59;101801;1332;61463;-82
2022/11/13 07:59:23;;;;;;;30.00;22.30;;;;;;;17.11;42.70;102534.35;101820;1331;61348;-81
2022/11/13 08:01:49;;;;;;;29.40;23.40;;;;;;;17.12;42.63;102533.98;101861;1328;61326;-81
2022/11/13 08:04:14;;;;;;;30.80;22.80;;;;;;;17.12;42.67;102531.12;101839;1332;61134;-81
2022/11/13 08:06:40;;;;;;;28.70;22.50;;;;;;;17.12;42.65;102531.83;101931;1327;61171;-82
2022/11/13 08:09:05;;;;;;;30.70;22.90;;;;;;;17.13;42.72;102525.05;101791;1335;61289;-82
2022/11/13 08:11:31;;;;;;;29.30;22.30;;;;;;;17.14;42.65;102528.40;101832;1328;61372;-82
2022/11/13 08:13:56;;;;;;;29.10;21.90;;;;;;;17.14;42.66;102523.77;101844;1331;61517;-82
2022/11/13 08:16:22;;;;;;;29.30;22.70;;;;;;;17.15;42.72;102522.69;101867;1328;61333;-82
2022/11/13 08:18:48;;;;;;;28.20;21.10;;;;;;;17.15;42.76;102522.14;101820;1335;61279;-83
2022/11/13 08:21:14;;;;;;;28.10;21.20;;;;;;;17.16;42.63;102523.03;101877;1335;61375;-82
2022/11/13 08:23:40;;;;;;;29.50;22.50;;;;;;;17.17;42.59;102515.52;101816;1335;61329;-82
2022/11/13 08:26:06;;;;;;;30.00;21.30;;;;;;;17.17;42.69;102511.08;101874;1328;61260;-82
2022/11/13 08:28:32;;;;;;;29.50;22.70;;;;;;;17.18;42.80;102510.86;101824;1331;61333;-82
2022/11/13 08:30:57;;;;;;;26.40;21.00;;;;;;;17.19;42.73;102511.89;101891;1331;61348;-82
2022/11/13 08:33:24;;;;;;;29.40;21.00;;;;;;;17.20;42.68;102506.36;101853;1332;61398;-82
2022/11/13 08:35:57;;;;;;;28.30;21.00;;;;;;;17.20;42.64;102505.09;101829;1328;74601;-82
2022/11/13 08:38:23;;;;;;;27.70;21.60;;;;;;;17.20;42.75;102501.53;101868;1331;61200;-81
2022/11/13 08:40:49;;;;;;;29.10;21.00;;;;;;;17.20;42.79;102502.77;101861;1332;61329;-81
2022/11/13 08:43:14;;;;;;;30.30;21.00;;;;;;;17.20;42.76;102502.06;101828;1332;61333;-82
2022/11/13 08:45:40;;;;;;;29.30;21.00;;;;;;;17.21;42.77;102498.15;101785;1334;61310;-81
2022/11/13 08:48:05;;;;;;;28.50;22.10;;;;;;;17.21;42.79;102501.86;101899;1328;61705;-81
2022/11/13 08:50:32;;;;;;;29.50;21.60;;;;;;;17.22;42.80;102502.73;101835;1334;61329;-82
2022/11/13 08:52:58;;;;;;;30.20;21.70;;;;;;;17.23;42.77;102497.73;101814;1332;61255;-82
2022/11/13 08:55:23;;;;;;;30.50;20.90;;;;;;;17.24;42.66;102501.80;101845;1329;61258;-83
2022/11/13 08:57:49;;;;;;;29.10;20.50;;;;;;;17.25;42.75;102500.70;101791;1336;61327;-81
2022/11/13 09:00:16;;;;;;;27.90;20.90;;;;;;;17.25;42.75;102496.42;101820;1331;61398;-81
2022/11/13 09:02:41;;;;;;;29.40;20.60;;;;;;;17.27;42.82;102489.80;101848;1331;61297;-81
2022/11/13 09:05:07;;;;;;;25.40;19.90;;;;;;;17.27;42.84;102485.51;101784;1334;59866;-81
2022/11/13 09:07:32;;;;;;;25.70;19.60;;;;;;;17.28;42.86;102485.83;101863;1331;61285;-82
2022/11/13 09:09:58;;;;;;;27.80;20.60;;;;;;;17.29;42.74;102483.86;101852;1331;75565;-81
2022/11/13 09:12:23;;;;;;;26.50;19.50;;;;;;;17.30;42.85;102481.52;101816;1336;61418;-82
2022/11/13 09:14:49;;;;;;;26.10;19.80;;;;;;;17.31;42.81;102479.53;101853;1335;61413;-82
2022/11/13 09:17:15;;;;;;;27.10;20.00;;;;;;;17.32;42.93;102474.33;101796;1334;61315;-81
2022/11/13 09:19:40;;;;;;;27.20;19.40;;;;;;;17.33;42.83;102467.20;101877;1327;61279;-82
2022/11/13 09:22:06;;;;;;;23.60;18.80;;;;;;;17.34;42.85;102465.04;101829;1331;74568;-81
2022/11/13 09:24:31;;;;;;;24.10;18.10;;;;;;;17.34;42.74;102463.96;101938;1328;61403;-81
2022/11/13 09:26:57;;;;;;;25.80;19.30;;;;;;;17.35;42.87;102458.06;101807;1332;61299;-82
2022/11/13 09:29:24;;;;;;;25.10;18.00;;;;;;;17.36;42.90;102456.95;101727;1333;61413;-82
2022/11/13 09:31:50;;;;;;;25.30;18.30;;;;;;;17.37;42.91;102454.61;101796;1328;61321;-82
2022/11/13 09:34:16;;;;;;;26.50;18.60;;;;;;;17.38;42.80;102453.52;101858;1331;61297;-82
2022/11/13 09:36:41;;;;;;;22.10;17.60;;;;;;;17.38;42.77;102447.27;101885;1330;61905;-82
2022/11/13 09:39:07;;;;;;;22.80;17.20;;;;;;;17.40;42.83;102448.14;101822;1334;61260;-82
2022/11/13 09:41:36;;;;;;;24.90;19.40;;;;;;;17.40;43.02;102450.62;101796;1334;61439;-81
2022/11/13 09:44:04;;;;;;;22.10;17.80;;;;;;;17.41;43.00;102450.94;101808;1332;75795;-81
2022/11/13 09:46:35;;;;;;;22.80;17.70;;;;;;;17.41;42.93;102443.82;101842;1332;61228;-82
2022/11/13 09:49:04;;;;;;;23.00;17.80;;;;;;;17.42;42.79;102441.48;101734;1335;61261;-81
2022/11/13 09:51:32;;;;;;;23.20;17.60;;;;;;;17.42;42.93;102441.48;101872;1331;72640;-81
2022/11/13 09:53:58;;;;;;;22.20;17.00;;;;;;;17.42;42.95;102435.05;101846;1327;75376;-81
2022/11/13 09:56:36;;;;;;;24.20;17.40;;;;;;;17.43;42.87;102435.40;101862;1331;61288;-80
2022/11/13 09:59:40;;;;;;;21.90;16.90;;;;;;;17.43;43.03;102433.61;101818;1336;61183;-81
2022/11/13 10:02:31;;;;;;;23.60;17.00;;;;;;;17.43;43.04;102427.56;101862;1335;72641;-82
2022/11/13 10:05:06;;;;;;;23.80;17.20;;;;;;;17.43;42.93;102427.02;101855;1332;75532;-82
2022/11/13 10:07:44;;;;;;;24.20;16.90;;;;;;;17.45;43.00;102421.65;101827;1331;61452;-82
2022/11/13 10:10:19;;;;;;;22.90;17.10;;;;;;;17.45;43.05;102421.45;101886;1330;61202;-82
2022/11/13 10:12:45;;;;;;;23.60;17.00;;;;;;;17.45;42.97;102414.52;101841;1334;72567;-82
2022/11/13 10:15:11;;;;;;;24.10;17.30;;;;;;;17.45;43.01;102416.83;101802;1328;75582;-82
2022/11/13 10:17:49;;;;;;;23.10;16.70;;;;;;;17.46;43.15;102414.49;101746;1334;61352;-82
2022/11/13 10:20:23;;;;;;;21.90;16.80;;;;;;;17.46;43.12;102417.34;101846;1333;62008;-81
2022/11/13 10:23:00;;;;;;;21.30;17.00;;;;;;;17.46;43.01;102413.08;101846;1335;72502;-81
2022/11/13 10:25:29;;;;;;;23.60;17.10;;;;;;;17.46;43.12;102413.59;101856;1331;74815;-81
2022/11/13 10:28:01;;;;;;;21.40;16.70;;;;;;;17.46;43.02;102410.75;101913;1331;61415;-81
2022/11/13 10:30:28;;;;;;;21.50;16.60;;;;;;;17.46;43.15;102406.29;101868;1331;61388;-82
2022/11/13 10:33:00;;;;;;;21.30;16.60;;;;;;;17.46;43.08;102402.91;101852;1331;73713;-82
2022/11/13 10:35:43;;;;;;;21.40;16.60;;;;;;;17.46;43.15;102397.21;101796;1334;75904;-83
2022/11/13 10:38:34;;;;;;;22.10;16.40;;;;;;;17.46;43.04;102390.63;101913;1329;61534;-82
2022/11/13 10:41:26;;;;;;;22.30;16.50;;;;;;;17.45;43.12;102389.23;101841;1335;61214;-82
2022/11/13 10:43:59;;;;;;;20.50;15.10;;;;;;;17.46;43.22;102389.59;101792;1331;72744;-82
2022/11/13 10:47:02;;;;;;;23.50;16.20;;;;;;;17.46;43.21;102386.02;101725;1331;74438;-81
2022/11/13 10:49:28;;;;;;;21.10;16.60;;;;;;;17.46;43.23;102382.61;101342;1332;61471;-82
2022/11/13 10:51:54;;;;;;;21.60;16.30;;;;;;;17.46;43.38;102380.85;101486;1345;61462;-81
2022/11/13 10:54:25;;;;;;;21.40;16.40;;;;;;;17.46;43.14;102375.16;101486;1340;63012;-81
2022/11/13 10:57:01;;;;;;;24.30;16.60;;;;;;;17.46;43.23;102371.59;101262;1344;73238;-82
2022/11/13 10:59:39;;;;;;;21.90;16.30;;;;;;;17.46;43.15;102368.20;101796;1344;61302;-82
2022/11/13 11:02:12;;;;;;;22.20;16.30;;;;;;;17.46;43.35;102367.13;101247;1347;61474;-82
2022/11/13 11:04:38;;;;;;;22.60;16.50;;;;;;;17.47;43.34;102361.96;101122;1340;72466;-80